Terminal Aerodrome Forecast
Issued by NWS Paducah, KY

Home | Current Version | Previous Version | Text Only | Print | Product List | Glossary On
Versions: 1 2 3 4 5 6 7 8 9 10 11 12 13 14 15 16 17 18 19
000
FTUS43 KPAH 151700
TAFPAH
TAF
KPAH 151720Z 1518/1618 22005KT P6SM SCT070 BKN150
      TEMPO 1518/1521 BKN070
     FM160100 23004KT P6SM VCSH SCT030 BKN060
     FM160500 34005KT P6SM SCT008 OVC012
     FM160700 35006KT P6SM SCT013 OVC020
      TEMPO 1607/1610 BKN013
     FM161600 02007KT P6SM SCT025=

USA.gov is the U.S. government's official web portal to all federal, state and local government web resources and services.